Terminal Aerodrome Forecast
Issued by NWS Louisville, KY

Home | Current Version | Previous Version | Text Only | Print | Product List | Glossary On
Versions: 1 2 3 4 5 6 7 8 9 10 11 12 13 14 15 16 17 18 19 20 21
131
FTUS43 KLMK 020355 AAA
TAFSDF
TAF AMD
KSDF 020355Z 0204/0306 22007KT P6SM SCT040
     FM020530 31015G22KT P6SM BKN070
     FM020630 33005KT P6SM SCT040=

USA.gov is the U.S. government's official web portal to all federal, state and local government web resources and services.